Lewisville, Texas
Current Conditions -  °F | °C
As of 3:53 AM on Saturday 25 Oct 2014 (Local Time) from KDFW Reporting Station
Clear Clear  
Wind Chill: 19°   Ceiling: Unl
Heat Index: 19°   Visibility: 10mi
Dew Point: 14°   Wind: 8mph
Humidity: 75%   Direction: 180°S
Pressure: 30.09"   Gusts: NA
Location:  33.05°N, 96.99°W
Report Text: KDFW 250853Z 18007KT 10SM CLR 19/14 A3009 RMK AO2 SLP182 T01890144 50001
Loading
Personal Weather Stations






























Interactive Weather Map
Tropical Storm Tracking
New forecast layout! Learn more

10-Day Weather Forecast

Advertisements
Track Severe Weather on mobile